createdAt,value
2023-04-27T00:00:14.459Z,1019.67
2023-04-27T00:01:13.897Z,1019.71
2023-04-27T00:02:12.745Z,1019.75
2023-04-27T00:03:14.241Z,1019.74
2023-04-27T00:04:13.919Z,1019.74
2023-04-27T00:05:13.191Z,1019.74
2023-04-27T00:06:13.515Z,1019.73
2023-04-27T00:07:13.497Z,1019.70
2023-04-27T00:08:13.279Z,1019.70
2023-04-27T00:09:13.853Z,1019.68
2023-04-27T00:10:13.085Z,1019.71
2023-04-27T00:11:14.996Z,1019.69
2023-04-27T00:12:12.929Z,1019.70
2023-04-27T00:13:12.936Z,1019.71
2023-04-27T00:14:13.040Z,1019.70
2023-04-27T00:15:13.067Z,1019.68
2023-04-27T00:16:13.199Z,1019.74
2023-04-27T00:17:13.233Z,1019.75
2023-04-27T00:18:13.174Z,1019.74
2023-04-27T00:19:13.554Z,1019.75
2023-04-27T00:20:14.017Z,1019.75
2023-04-27T00:21:13.154Z,1019.75
2023-04-27T00:22:13.353Z,1019.71
2023-04-27T00:23:13.564Z,1019.76
2023-04-27T00:24:13.551Z,1019.74
2023-04-27T00:25:13.689Z,1019.74
2023-04-27T00:26:13.757Z,1019.72
2023-04-27T00:27:13.742Z,1019.72
2023-04-27T00:28:13.687Z,1019.75
2023-04-27T00:29:14.010Z,1019.75
2023-04-27T00:30:13.432Z,1019.73
2023-04-27T00:31:13.861Z,1019.72
2023-04-27T00:32:14.017Z,1019.74
2023-04-27T00:33:12.985Z,1019.75
2023-04-27T00:34:12.946Z,1019.73
2023-04-27T00:35:13.044Z,1019.72
2023-04-27T00:36:14.324Z,1019.71
2023-04-27T00:37:13.446Z,1019.73
2023-04-27T00:38:13.472Z,1019.70
2023-04-27T00:39:13.712Z,1019.69
2023-04-27T00:40:14.137Z,1019.75
2023-04-27T00:41:13.137Z,1019.71
2023-04-27T00:42:13.368Z,1019.74
2023-04-27T00:43:13.328Z,1019.77
2023-04-27T00:44:13.390Z,1019.79
2023-04-27T00:45:13.528Z,1019.81
2023-04-27T00:46:14.319Z,1019.78
2023-04-27T00:47:13.274Z,1019.78
2023-04-27T00:48:13.477Z,1019.76
2023-04-27T00:49:13.740Z,1019.79
2023-04-27T00:50:13.106Z,1019.80
2023-04-27T00:51:13.206Z,1019.78
2023-04-27T00:52:13.162Z,1019.81
2023-04-27T00:53:13.400Z,1019.84
2023-04-27T00:54:13.297Z,1019.82
2023-04-27T00:55:13.513Z,1019.81
2023-04-27T00:56:35.870Z,1019.82
2023-04-27T00:57:13.809Z,1019.81
2023-04-27T00:58:14.106Z,1019.79
2023-04-27T00:59:13.418Z,1019.83
2023-04-27T01:00:13.994Z,1019.84
2023-04-27T01:01:13.222Z,1019.86
2023-04-27T01:02:13.339Z,1019.91
2023-04-27T01:03:13.360Z,1019.89
2023-04-27T01:04:13.783Z,1019.89
2023-04-27T01:05:12.850Z,1019.86
2023-04-27T01:06:13.767Z,1019.89
2023-04-27T01:07:14.156Z,1019.89
2023-04-27T01:08:13.235Z,1019.92
2023-04-27T01:09:13.742Z,1019.91
2023-04-27T01:10:18.506Z,1019.92
2023-04-27T01:11:13.726Z,1019.92
2023-04-27T01:12:14.137Z,1019.94
2023-04-27T01:13:23.297Z,1019.90
2023-04-27T01:14:35.769Z,1019.95
2023-04-27T01:15:35.875Z,1019.97
2023-04-27T01:16:14.308Z,1019.99
2023-04-27T01:17:18.517Z,1019.97
2023-04-27T01:18:13.819Z,1019.97
2023-04-27T01:19:21.283Z,1019.97
2023-04-27T01:20:25.102Z,1019.95
2023-04-27T01:21:12.976Z,1020.01
2023-04-27T01:22:13.410Z,1019.97
2023-04-27T01:23:24.700Z,1019.99
2023-04-27T01:24:19.392Z,1020.04
2023-04-27T01:25:13.467Z,1020.06
2023-04-27T01:26:28.677Z,1020.10
2023-04-27T01:27:13.668Z,1020.07
2023-04-27T01:28:13.329Z,1020.08
2023-04-27T01:29:15.930Z,1020.11
2023-04-27T01:30:12.970Z,1020.08
2023-04-27T01:31:12.988Z,1020.12
2023-04-27T01:32:13.471Z,1020.07
2023-04-27T01:33:13.765Z,1020.11
2023-04-27T01:34:13.820Z,1020.08
2023-04-27T01:35:14.094Z,1020.06
2023-04-27T01:36:13.004Z,1020.07
2023-04-27T01:37:13.007Z,1020.07
2023-04-27T01:38:13.261Z,1020.07
2023-04-27T01:39:13.601Z,1020.05
2023-04-27T01:40:13.893Z,1020.05
2023-04-27T01:41:13.158Z,1020.08
2023-04-27T01:42:13.202Z,1020.08
2023-04-27T01:43:38.220Z,1020.08
2023-04-27T01:44:13.396Z,1020.11
2023-04-27T01:45:13.835Z,1020.09
2023-04-27T01:46:14.051Z,1020.11
2023-04-27T01:47:14.415Z,1020.10
2023-04-27T01:48:13.616Z,1020.06
2023-04-27T01:49:14.312Z,1020.08
2023-04-27T01:50:13.796Z,1020.11
2023-04-27T01:51:13.789Z,1020.15
2023-04-27T01:52:13.732Z,1020.16
2023-04-27T01:53:14.129Z,1020.18
2023-04-27T01:54:13.546Z,1020.22
2023-04-27T01:55:13.998Z,1020.15
2023-04-27T01:56:13.293Z,1020.20
2023-04-27T01:57:13.456Z,1020.18
2023-04-27T01:58:13.427Z,1020.18
2023-04-27T01:59:13.886Z,1020.18
2023-04-27T02:01:13.597Z,1020.20
2023-04-27T02:02:13.846Z,1020.20
2023-04-27T02:03:14.351Z,1020.24
2023-04-27T02:04:13.701Z,1020.25
2023-04-27T02:05:13.086Z,1020.22
2023-04-27T02:06:13.557Z,1020.24
2023-04-27T02:08:13.104Z,1020.26
2023-04-27T02:09:13.292Z,1020.25
2023-04-27T02:10:13.568Z,1020.27
2023-04-27T02:11:13.615Z,1020.29
2023-04-27T02:12:13.485Z,1020.31
2023-04-27T02:13:13.475Z,1020.30
2023-04-27T02:14:13.491Z,1020.29
2023-04-27T02:15:13.882Z,1020.32
2023-04-27T02:16:13.137Z,1020.29
2023-04-27T02:17:13.463Z,1020.32
2023-04-27T02:18:13.445Z,1020.29
2023-04-27T02:19:13.795Z,1020.31
2023-04-27T02:20:13.396Z,1020.32
2023-04-27T02:21:13.469Z,1020.29
2023-04-27T02:22:13.722Z,1020.27
2023-04-27T02:23:13.879Z,1020.34
2023-04-27T02:24:13.865Z,1020.32
2023-04-27T02:25:13.493Z,1020.31
2023-04-27T02:26:13.709Z,1020.29
2023-04-27T02:27:14.370Z,1020.32
2023-04-27T02:28:14.131Z,1020.28
2023-04-27T02:29:15.085Z,1020.28
2023-04-27T02:30:13.657Z,1020.25
2023-04-27T02:31:13.514Z,1020.24
2023-04-27T02:32:13.662Z,1020.25
2023-04-27T02:33:13.666Z,1020.25
2023-04-27T02:34:13.580Z,1020.23
2023-04-27T02:35:14.121Z,1020.19
2023-04-27T02:36:13.193Z,1020.15
2023-04-27T02:37:14.300Z,1020.15
2023-04-27T02:38:13.265Z,1020.20
2023-04-27T02:39:13.779Z,1020.19
2023-04-27T02:40:14.132Z,1020.24
2023-04-27T02:41:13.458Z,1020.24
2023-04-27T02:42:13.568Z,1020.26
2023-04-27T02:43:13.698Z,1020.24
2023-04-27T02:44:13.656Z,1020.21
2023-04-27T02:45:13.606Z,1020.21
2023-04-27T02:46:13.750Z,1020.21
2023-04-27T02:47:13.868Z,1020.23
2023-04-27T02:48:13.717Z,1020.23
2023-04-27T02:49:14.050Z,1020.24
2023-04-27T02:50:13.229Z,1020.24
2023-04-27T02:51:13.331Z,1020.22
2023-04-27T02:52:13.337Z,1020.20
2023-04-27T02:53:13.244Z,1020.18
2023-04-27T02:54:13.096Z,1020.16
2023-04-27T02:55:13.089Z,1020.15
2023-04-27T02:56:13.219Z,1020.14
2023-04-27T02:57:13.350Z,1020.11
2023-04-27T02:58:13.362Z,1020.10
2023-04-27T02:59:13.599Z,1020.14
2023-04-27T03:00:13.627Z,1020.14
2023-04-27T03:01:13.792Z,1020.17
2023-04-27T03:02:13.892Z,1020.21
2023-04-27T03:03:14.305Z,1020.23
2023-04-27T03:04:13.693Z,1020.21
2023-04-27T03:05:13.919Z,1020.24
2023-04-27T03:06:13.042Z,1020.20
2023-04-27T03:07:13.169Z,1020.20
2023-04-27T03:08:13.333Z,1020.22
2023-04-27T03:09:13.947Z,1020.17
2023-04-27T03:10:13.403Z,1020.18
2023-04-27T03:11:13.321Z,1020.15
2023-04-27T03:12:13.467Z,1020.17
2023-04-27T03:13:13.878Z,1020.17
2023-04-27T03:14:13.765Z,1020.12
2023-04-27T03:15:13.738Z,1020.11
2023-04-27T03:16:13.689Z,1020.11
2023-04-27T03:17:13.813Z,1020.11
2023-04-27T03:18:14.104Z,1020.09
2023-04-27T03:19:13.594Z,1020.09
2023-04-27T03:20:13.726Z,1020.05
2023-04-27T03:21:13.775Z,1020.03
2023-04-27T03:22:13.616Z,1020.02
2023-04-27T03:23:13.762Z,1020.02
2023-04-27T03:24:14.003Z,1020.01
2023-04-27T03:25:13.033Z,1020.02
2023-04-27T03:26:12.942Z,1020.01
2023-04-27T03:27:12.901Z,1020.01
2023-04-27T03:28:13.911Z,1019.99
2023-04-27T03:29:13.095Z,1020.00
2023-04-27T03:30:13.250Z,1019.98
2023-04-27T03:31:13.235Z,1019.98
2023-04-27T03:32:13.289Z,1019.99
2023-04-27T03:33:13.430Z,1020.03
2023-04-27T03:34:13.467Z,1020.01
2023-04-27T03:35:13.956Z,1020.00
2023-04-27T03:36:13.274Z,1020.02
2023-04-27T03:37:13.145Z,1020.01
2023-04-27T03:38:13.065Z,1020.06
2023-04-27T03:39:13.157Z,1020.04
2023-04-27T03:40:13.242Z,1020.08
2023-04-27T03:41:13.362Z,1020.05
2023-04-27T03:42:13.396Z,1020.01
2023-04-27T03:43:13.227Z,1020.04
2023-04-27T03:44:13.252Z,1020.06
2023-04-27T03:45:13.285Z,1020.08
2023-04-27T03:46:13.499Z,1020.07
2023-04-27T03:47:13.767Z,1020.11
2023-04-27T03:48:13.844Z,1020.12
2023-04-27T03:49:13.969Z,1020.13
2023-04-27T03:50:13.301Z,1020.13
2023-04-27T03:51:13.649Z,1020.15
2023-04-27T03:52:13.710Z,1020.15
2023-04-27T03:53:13.621Z,1020.13
2023-04-27T03:54:13.551Z,1020.17
2023-04-27T03:55:13.637Z,1020.18
2023-04-27T03:56:13.561Z,1020.21
2023-04-27T03:57:13.835Z,1020.25
2023-04-27T03:58:13.799Z,1020.25
2023-04-27T03:59:14.482Z,1020.24
2023-04-27T04:00:13.849Z,1020.28
2023-04-27T04:01:14.008Z,1020.23
2023-04-27T04:02:13.159Z,1020.27
2023-04-27T04:03:13.601Z,1020.28
2023-04-27T04:04:14.161Z,1020.26
2023-04-27T04:05:18.503Z,1020.24
2023-04-27T04:06:13.899Z,1020.23
2023-04-27T04:07:13.100Z,1020.25
2023-04-27T04:08:12.994Z,1020.24
2023-04-27T04:09:13.344Z,1020.24
2023-04-27T04:10:14.542Z,1020.23
2023-04-27T04:11:13.450Z,1020.27
2023-04-27T04:12:13.555Z,1020.25
2023-04-27T04:13:13.790Z,1020.25
2023-04-27T04:14:14.048Z,1020.27
2023-04-27T04:15:13.112Z,1020.30
2023-04-27T04:16:13.147Z,1020.31
2023-04-27T04:17:13.151Z,1020.34
2023-04-27T04:18:13.228Z,1020.35
2023-04-27T04:19:13.325Z,1020.34
2023-04-27T04:20:13.674Z,1020.37
2023-04-27T04:21:13.895Z,1020.38
2023-04-27T04:22:12.927Z,1020.43
2023-04-27T04:23:12.898Z,1020.44
2023-04-27T04:24:12.799Z,1020.47
2023-04-27T04:25:13.758Z,1020.48
2023-04-27T04:26:13.776Z,1020.46
2023-04-27T04:27:13.967Z,1020.41
2023-04-27T04:28:44.409Z,1020.44
2023-04-27T04:29:19.929Z,1020.43
2023-04-27T04:31:17.329Z,1020.45
2023-04-27T04:32:13.668Z,1020.46
2023-04-27T04:33:13.696Z,1020.51
2023-04-27T04:34:24.363Z,1020.50
2023-04-27T04:35:14.031Z,1020.50
2023-04-27T04:36:18.382Z,1020.51
2023-04-27T04:37:13.614Z,1020.50
2023-04-27T04:38:13.900Z,1020.50
2023-04-27T04:39:13.115Z,1020.48
2023-04-27T04:40:13.477Z,1020.48
2023-04-27T04:41:13.761Z,1020.47
2023-04-27T04:42:13.732Z,1020.50
2023-04-27T04:43:13.868Z,1020.50
2023-04-27T04:44:13.800Z,1020.48
2023-04-27T04:45:13.590Z,1020.51
2023-04-27T04:46:13.862Z,1020.50
2023-04-27T04:47:13.221Z,1020.48
2023-04-27T04:48:13.277Z,1020.48
2023-04-27T04:49:13.671Z,1020.47
2023-04-27T04:50:13.052Z,1020.45
2023-04-27T04:51:13.340Z,1020.45
2023-04-27T04:52:13.309Z,1020.40
2023-04-27T04:53:13.384Z,1020.40
2023-04-27T04:54:13.483Z,1020.39
2023-04-27T04:55:14.267Z,1020.39
2023-04-27T04:56:13.420Z,1020.39
2023-04-27T04:57:18.397Z,1020.43
2023-04-27T04:58:13.370Z,1020.43
2023-04-27T04:59:13.857Z,1020.44
2023-04-27T05:00:12.943Z,1020.42
2023-04-27T05:01:12.896Z,1020.44
2023-04-27T05:02:12.816Z,1020.40
2023-04-27T05:03:14.126Z,1020.40
2023-04-27T05:05:13.926Z,1020.36
2023-04-27T05:06:13.092Z,1020.38
2023-04-27T05:07:15.076Z,1020.41
2023-04-27T05:08:13.603Z,1020.45
2023-04-27T05:09:14.137Z,1020.47
2023-04-27T05:10:13.688Z,1020.42
2023-04-27T05:11:13.558Z,1020.46
2023-04-27T05:12:13.936Z,1020.40
2023-04-27T05:13:14.280Z,1020.42
2023-04-27T05:14:13.517Z,1020.41
2023-04-27T05:15:13.515Z,1020.49
2023-04-27T05:16:13.632Z,1020.49
2023-04-27T05:17:13.793Z,1020.51
2023-04-27T05:18:14.061Z,1020.50
2023-04-27T05:19:18.058Z,1020.50
2023-04-27T05:20:12.934Z,1020.50
2023-04-27T05:21:12.873Z,1020.53
2023-04-27T05:22:14.069Z,1020.54
2023-04-27T05:23:13.467Z,1020.56
2023-04-27T05:24:13.571Z,1020.54
2023-04-27T05:25:13.830Z,1020.55
2023-04-27T05:26:13.913Z,1020.58
2023-04-27T05:27:12.815Z,1020.56
2023-04-27T05:28:13.800Z,1020.57
2023-04-27T05:29:13.106Z,1020.60
2023-04-27T05:30:18.119Z,1020.60
2023-04-27T05:31:13.325Z,1020.62
2023-04-27T05:32:13.240Z,1020.64
2023-04-27T05:33:13.195Z,1020.63
2023-04-27T05:34:13.322Z,1020.65
2023-04-27T05:35:13.516Z,1020.69
2023-04-27T05:36:13.398Z,1020.65
2023-04-27T05:37:13.608Z,1020.69
2023-04-27T05:38:13.636Z,1020.71
2023-04-27T05:39:14.138Z,1020.72
2023-04-27T05:40:13.505Z,1020.74
2023-04-27T05:41:13.752Z,1020.77
2023-04-27T05:42:13.768Z,1020.78
2023-04-27T05:43:18.843Z,1020.79
2023-04-27T05:44:13.917Z,1020.75
2023-04-27T05:45:12.915Z,1020.78
2023-04-27T05:46:13.396Z,1020.78
2023-04-27T05:47:13.352Z,1020.78
2023-04-27T05:49:13.624Z,1020.84
2023-04-27T05:50:23.891Z,1020.87
2023-04-27T05:51:13.148Z,1020.88
2023-04-27T05:52:13.413Z,1020.93
2023-04-27T05:53:13.814Z,1020.95
2023-04-27T05:54:13.939Z,1021.00
2023-04-27T05:55:13.263Z,1021.00
2023-04-27T05:56:13.532Z,1021.01
2023-04-27T05:57:13.710Z,1020.99
2023-04-27T05:58:13.919Z,1021.00
2023-04-27T05:59:13.129Z,1020.98
2023-04-27T06:00:13.297Z,1020.99
2023-04-27T06:01:13.412Z,1021.04
2023-04-27T06:02:13.894Z,1021.05
2023-04-27T06:03:13.381Z,1021.04
2023-04-27T06:04:14.268Z,1021.07
2023-04-27T06:05:13.730Z,1021.07
2023-04-27T06:06:13.754Z,1021.03
2023-04-27T06:07:13.765Z,1021.06
2023-04-27T06:08:13.908Z,1021.06
2023-04-27T06:09:17.842Z,1021.08
2023-04-27T06:10:13.981Z,1021.04
2023-04-27T06:11:13.112Z,1021.06
2023-04-27T06:12:13.268Z,1021.06
2023-04-27T06:13:23.616Z,1021.05
2023-04-27T06:14:13.789Z,1021.05
2023-04-27T06:15:14.104Z,1021.00
2023-04-27T06:16:23.516Z,1021.01
2023-04-27T06:17:13.536Z,1021.03
2023-04-27T06:18:13.530Z,1021.02
2023-04-27T06:19:13.671Z,1021.00
2023-04-27T06:20:14.045Z,1021.02
2023-04-27T06:21:13.300Z,1021.04
2023-04-27T06:22:13.431Z,1021.05
2023-04-27T06:23:13.555Z,1021.04
2023-04-27T06:24:13.479Z,1021.06
2023-04-27T06:25:13.784Z,1021.11
2023-04-27T06:26:14.261Z,1021.10
2023-04-27T06:27:13.315Z,1021.06
2023-04-27T06:28:13.522Z,1021.07
2023-04-27T06:29:14.450Z,1021.08
2023-04-27T06:30:18.756Z,1021.06
2023-04-27T06:31:18.617Z,1021.07
2023-04-27T06:32:13.748Z,1021.05
2023-04-27T06:33:14.109Z,1021.10
2023-04-27T06:34:13.396Z,1021.14
2023-04-27T06:35:13.419Z,1021.12
2023-04-27T06:36:13.540Z,1021.10
2023-04-27T06:37:13.621Z,1021.09
2023-04-27T06:38:13.870Z,1021.16
2023-04-27T06:39:14.354Z,1021.13
2023-04-27T06:40:13.731Z,1021.13
2023-04-27T06:41:13.799Z,1021.08
2023-04-27T06:42:14.085Z,1021.12
2023-04-27T06:43:13.192Z,1021.12
2023-04-27T06:44:13.196Z,1021.11
2023-04-27T06:45:13.084Z,1021.09
2023-04-27T06:46:13.359Z,1021.08
2023-04-27T06:47:13.770Z,1021.11
2023-04-27T06:48:13.831Z,1021.07
2023-04-27T06:49:14.222Z,1021.06
2023-04-27T06:50:13.453Z,1021.09
2023-04-27T06:51:14.037Z,1021.11
2023-04-27T06:52:13.015Z,1020.98
2023-04-27T06:53:13.067Z,1020.96
2023-04-27T06:54:13.399Z,1021.00
2023-04-27T06:55:13.527Z,1021.02
2023-04-27T06:56:13.551Z,1021.03
2023-04-27T06:57:13.539Z,1021.02
2023-04-27T06:58:13.549Z,1021.06
2023-04-27T06:59:13.822Z,1021.02
2023-04-27T07:00:13.036Z,1021.00
2023-04-27T07:01:13.011Z,1020.99
2023-04-27T07:02:13.277Z,1020.99
2023-04-27T07:03:18.369Z,1020.97
2023-04-27T07:04:13.653Z,1020.93
2023-04-27T07:05:13.873Z,1020.94
2023-04-27T07:06:14.136Z,1020.91
2023-04-27T07:07:18.275Z,1020.93
2023-04-27T07:08:13.629Z,1020.91
2023-04-27T07:09:26.526Z,1020.95
2023-04-27T07:10:13.416Z,1020.98
2023-04-27T07:11:13.614Z,1020.95
2023-04-27T07:12:13.572Z,1020.96
2023-04-27T07:13:14.505Z,1020.97
2023-04-27T07:14:13.684Z,1020.94
2023-04-27T07:15:13.702Z,1020.90
2023-04-27T07:16:14.011Z,1020.91
2023-04-27T07:17:13.231Z,1020.93
2023-04-27T07:18:13.202Z,1020.92
2023-04-27T07:19:13.881Z,1020.93
2023-04-27T07:20:13.828Z,1020.95
2023-04-27T07:21:13.861Z,1020.96
2023-04-27T07:22:13.161Z,1020.99
2023-04-27T07:23:13.375Z,1020.96
2023-04-27T07:24:13.522Z,1020.96
2023-04-27T07:25:13.599Z,1020.95
2023-04-27T07:26:13.738Z,1020.94
2023-04-27T07:27:13.913Z,1020.91
2023-04-27T07:28:12.964Z,1020.91
2023-04-27T07:29:25.458Z,1020.94
2023-04-27T07:30:13.216Z,1020.96
2023-04-27T07:31:13.333Z,1020.92
2023-04-27T07:32:13.909Z,1020.90
2023-04-27T07:33:12.896Z,1020.91
2023-04-27T07:34:13.081Z,1020.89
2023-04-27T07:35:13.115Z,1020.89
2023-04-27T07:36:14.054Z,1020.89
2023-04-27T07:37:13.092Z,1020.96
2023-04-27T07:38:13.008Z,1020.90
2023-04-27T07:39:13.211Z,1020.95
2023-04-27T07:40:13.412Z,1020.92
2023-04-27T07:41:13.382Z,1020.93
2023-04-27T07:42:13.372Z,1020.92
2023-04-27T07:43:13.485Z,1020.89
2023-04-27T07:44:13.352Z,1020.90
2023-04-27T07:45:13.878Z,1020.89
2023-04-27T07:46:14.038Z,1020.93
2023-04-27T07:47:13.158Z,1020.91
2023-04-27T07:48:13.163Z,1020.90
2023-04-27T07:49:13.237Z,1020.94
2023-04-27T07:50:13.495Z,1020.92
2023-04-27T07:51:13.799Z,1020.92
2023-04-27T07:52:13.642Z,1020.89
2023-04-27T07:53:13.687Z,1020.90
2023-04-27T07:54:13.646Z,1020.95
2023-04-27T07:55:18.657Z,1020.91
2023-04-27T07:56:13.654Z,1020.94
2023-04-27T07:57:13.860Z,1020.93
2023-04-27T07:58:14.155Z,1020.95
2023-04-27T08:00:12.937Z,1020.94
2023-04-27T08:01:13.097Z,1020.94
2023-04-27T08:02:19.781Z,1020.91
2023-04-27T08:03:21.301Z,1020.90
2023-04-27T08:04:13.877Z,1020.89
2023-04-27T08:05:14.580Z,1020.94
2023-04-27T08:06:27.158Z,1020.95
2023-04-27T08:07:14.208Z,1020.97
2023-04-27T08:08:18.868Z,1020.97
2023-04-27T08:09:17.870Z,1020.93
2023-04-27T08:10:12.653Z,1020.92
2023-04-27T08:11:13.713Z,1020.94
2023-04-27T08:12:13.761Z,1020.97
2023-04-27T08:13:36.831Z,1020.96
2023-04-27T08:15:13.712Z,1020.96
2023-04-27T08:16:14.029Z,1020.96
2023-04-27T08:17:13.066Z,1020.99
2023-04-27T08:18:13.224Z,1020.96
2023-04-27T08:19:34.575Z,1020.96
2023-04-27T08:20:47.248Z,1020.93
2023-04-27T08:21:13.590Z,1020.87
2023-04-27T08:22:13.750Z,1020.87
2023-04-27T08:23:14.115Z,1020.91
2023-04-27T08:24:13.166Z,1020.89
2023-04-27T08:25:13.503Z,1020.92
2023-04-27T08:26:26.595Z,1020.90
2023-04-27T08:27:13.516Z,1020.89
2023-04-27T08:28:13.462Z,1020.90
2023-04-27T08:29:26.267Z,1020.91
2023-04-27T08:30:13.317Z,1020.92
2023-04-27T08:31:13.654Z,1020.89
2023-04-27T08:32:13.795Z,1020.90
2023-04-27T08:33:14.009Z,1020.89
2023-04-27T08:34:12.937Z,1020.89
2023-04-27T08:35:12.833Z,1020.91
2023-04-27T08:36:13.863Z,1020.87
2023-04-27T08:37:14.041Z,1020.86
2023-04-27T08:38:12.935Z,1020.85
2023-04-27T08:39:14.312Z,1020.84
2023-04-27T08:40:13.337Z,1020.86
2023-04-27T08:41:21.510Z,1020.85
2023-04-27T08:42:13.535Z,1020.85
2023-04-27T08:43:13.673Z,1020.81
2023-04-27T08:44:13.596Z,1020.80
2023-04-27T08:45:13.588Z,1020.82
2023-04-27T08:46:13.813Z,1020.77
2023-04-27T08:47:13.984Z,1020.73
2023-04-27T08:48:13.471Z,1020.74
2023-04-27T08:49:15.954Z,1020.76
2023-04-27T08:50:13.541Z,1020.73
2023-04-27T08:51:13.548Z,1020.79
2023-04-27T08:52:13.766Z,1020.75
2023-04-27T08:53:13.896Z,1020.78
2023-04-27T08:54:12.975Z,1020.79
2023-04-27T08:55:14.436Z,1020.82
2023-04-27T08:56:13.460Z,1020.84
2023-04-27T08:57:13.656Z,1020.84
2023-04-27T08:58:13.766Z,1020.78
2023-04-27T08:59:14.433Z,1020.85
2023-04-27T09:00:13.839Z,1020.82
2023-04-27T09:01:13.865Z,1020.84
2023-04-27T09:02:13.973Z,1020.86
2023-04-27T09:03:13.133Z,1020.77
2023-04-27T09:04:13.989Z,1020.84
2023-04-27T09:05:13.445Z,1020.84
2023-04-27T09:06:13.765Z,1020.88
2023-04-27T09:07:13.988Z,1020.86
2023-04-27T09:08:13.083Z,1020.85
2023-04-27T09:09:13.721Z,1020.84
2023-04-27T09:10:13.124Z,1020.82
2023-04-27T09:11:13.211Z,1020.81
2023-04-27T09:12:13.152Z,1020.82
2023-04-27T09:13:13.339Z,1020.78
2023-04-27T09:14:13.298Z,1020.77
2023-04-27T09:15:13.409Z,1020.81
2023-04-27T09:16:13.280Z,1020.80
2023-04-27T09:17:13.186Z,1020.74
2023-04-27T09:18:13.357Z,1020.74
2023-04-27T09:19:13.893Z,1020.77
2023-04-27T09:20:13.561Z,1020.74
2023-04-27T09:21:19.066Z,1020.83
2023-04-27T09:22:12.926Z,1020.79
2023-04-27T09:23:13.094Z,1020.78
2023-04-27T09:24:13.198Z,1020.84
2023-04-27T09:25:13.234Z,1020.82
2023-04-27T09:26:18.508Z,1020.79
2023-04-27T09:27:13.395Z,1020.81
2023-04-27T09:28:13.322Z,1020.78
2023-04-27T09:29:13.673Z,1020.69
2023-04-27T09:30:14.158Z,1020.67
2023-04-27T09:31:13.252Z,1020.68
2023-04-27T09:32:16.707Z,1020.62
2023-04-27T09:33:13.122Z,1020.60
2023-04-27T09:34:13.541Z,1020.63
2023-04-27T09:35:13.639Z,1020.62
2023-04-27T09:36:13.892Z,1020.63
2023-04-27T09:37:13.050Z,1020.68
2023-04-27T09:38:13.761Z,1020.64
2023-04-27T09:39:14.202Z,1020.64
2023-04-27T09:40:13.346Z,1020.64
2023-04-27T09:41:13.411Z,1020.62
2023-04-27T09:42:13.417Z,1020.55
2023-04-27T09:43:13.289Z,1020.52
2023-04-27T09:44:13.221Z,1020.49
2023-04-27T09:45:13.262Z,1020.52
2023-04-27T09:46:13.355Z,1020.54
2023-04-27T09:47:13.278Z,1020.54
2023-04-27T09:48:13.160Z,1020.51
2023-04-27T09:49:13.562Z,1020.48
2023-04-27T09:50:13.828Z,1020.50
2023-04-27T09:51:13.901Z,1020.49
2023-04-27T09:52:12.843Z,1020.47
2023-04-27T09:53:13.849Z,1020.43
2023-04-27T09:54:13.901Z,1020.47
2023-04-27T09:55:13.100Z,1020.50
2023-04-27T09:56:13.069Z,1020.48
2023-04-27T09:57:13.106Z,1020.47
2023-04-27T09:58:13.160Z,1020.54
2023-04-27T09:59:13.512Z,1020.51
2023-04-27T10:00:13.829Z,1020.43
2023-04-27T10:01:13.864Z,1020.43
2023-04-27T10:02:24.025Z,1020.40
2023-04-27T10:03:13.551Z,1020.47
2023-04-27T10:04:13.788Z,1020.42
2023-04-27T10:05:13.185Z,1020.48
2023-04-27T10:06:13.467Z,1020.38
2023-04-27T10:07:13.581Z,1020.38
2023-04-27T10:08:13.551Z,1020.42
2023-04-27T10:09:13.581Z,1020.41
2023-04-27T10:10:14.232Z,1020.39
2023-04-27T10:11:13.269Z,1020.43
2023-04-27T10:12:13.517Z,1020.46
2023-04-27T10:13:13.837Z,1020.43
2023-04-27T10:14:14.063Z,1020.44
2023-04-27T10:15:13.032Z,1020.46
2023-04-27T10:16:13.094Z,1020.46
2023-04-27T10:17:13.399Z,1020.44
2023-04-27T10:18:13.606Z,1020.37
2023-04-27T10:19:14.233Z,1020.40
2023-04-27T10:20:13.843Z,1020.43
2023-04-27T10:21:13.874Z,1020.43
2023-04-27T10:22:13.108Z,1020.46
2023-04-27T10:24:03.279Z,1020.38
2023-04-27T10:24:17.969Z,1020.39
2023-04-27T10:25:13.089Z,1020.38
2023-04-27T10:26:13.314Z,1020.32
2023-04-27T10:27:13.729Z,1020.35
2023-04-27T10:28:13.824Z,1020.33
2023-04-27T10:29:14.422Z,1020.37
2023-04-27T10:30:14.064Z,1020.35
2023-04-27T10:31:13.111Z,1020.32
2023-04-27T10:32:13.478Z,1020.31
2023-04-27T10:33:13.821Z,1020.25
2023-04-27T10:34:13.910Z,1020.24
2023-04-27T10:35:12.967Z,1020.23
2023-04-27T10:36:12.906Z,1020.19
2023-04-27T10:37:12.917Z,1020.23
2023-04-27T10:38:13.185Z,1020.19
2023-04-27T10:39:13.360Z,1020.16
2023-04-27T10:41:39.544Z,1020.08
2023-04-27T10:42:13.699Z,1020.10
2023-04-27T10:43:13.835Z,1020.07
2023-04-27T10:44:13.941Z,1020.10
2023-04-27T10:45:13.231Z,1020.12
2023-04-27T10:46:13.651Z,1020.05
2023-04-27T10:47:13.797Z,1020.06
2023-04-27T10:48:14.245Z,1020.11
2023-04-27T10:49:13.789Z,1020.09
2023-04-27T10:50:13.036Z,1020.10
2023-04-27T10:51:13.091Z,1020.07
2023-04-27T10:52:13.085Z,1020.07
2023-04-27T10:53:13.221Z,1020.09
2023-04-27T10:54:13.602Z,1020.08
2023-04-27T10:55:13.873Z,1019.98
2023-04-27T10:56:19.401Z,1019.98
2023-04-27T10:57:13.469Z,1019.97
2023-04-27T10:58:13.493Z,1020.04
2023-04-27T10:59:14.182Z,1020.03
2023-04-27T11:00:13.375Z,1020.01
2023-04-27T11:01:12.964Z,1020.11
2023-04-27T11:02:13.738Z,1020.14
2023-04-27T11:03:14.508Z,1020.13
2023-04-27T11:04:14.236Z,1020.04
2023-04-27T11:05:14.128Z,1019.99
2023-04-27T11:06:13.196Z,1019.99
2023-04-27T11:08:13.126Z,1019.97
2023-04-27T11:09:13.122Z,1019.95
2023-04-27T11:10:13.234Z,1019.96
2023-04-27T11:11:15.988Z,1020.00
2023-04-27T11:12:14.017Z,1019.99
2023-04-27T11:13:12.985Z,1019.96
2023-04-27T11:14:13.207Z,1019.95
2023-04-27T11:15:14.553Z,1019.95
2023-04-27T11:16:13.690Z,1019.98
2023-04-27T11:17:13.574Z,1019.90
2023-04-27T11:18:13.421Z,1019.96
2023-04-27T11:19:13.790Z,1019.96
2023-04-27T11:20:13.399Z,1019.94
2023-04-27T11:21:13.515Z,1019.98
2023-04-27T11:22:13.686Z,1019.99
2023-04-27T11:23:13.702Z,1019.94
2023-04-27T11:24:15.327Z,1019.94
2023-04-27T11:25:13.796Z,1019.95
2023-04-27T11:26:13.918Z,1019.93
2023-04-27T11:27:13.117Z,1019.90
2023-04-27T11:28:14.164Z,1019.92
2023-04-27T11:29:14.698Z,1019.82
2023-04-27T11:30:12.745Z,1019.82
2023-04-27T11:31:13.915Z,1019.85
2023-04-27T11:32:13.360Z,1019.85
2023-04-27T11:33:13.649Z,1019.83
2023-04-27T11:35:13.526Z,1019.86
2023-04-27T11:36:13.544Z,1019.92
2023-04-27T11:37:18.548Z,1019.93
2023-04-27T11:38:13.934Z,1019.92
2023-04-27T11:39:13.085Z,1019.85
2023-04-27T11:40:13.063Z,1019.88
2023-04-27T11:41:13.210Z,1019.96
2023-04-27T11:42:13.363Z,1019.94
2023-04-27T11:43:13.866Z,1019.93
2023-04-27T11:44:14.305Z,1019.93
2023-04-27T11:45:13.322Z,1019.94
2023-04-27T11:47:13.482Z,1019.89
2023-04-27T11:48:13.528Z,1019.90
2023-04-27T11:49:13.697Z,1019.93
2023-04-27T11:50:13.876Z,1019.90
2023-04-27T11:51:12.981Z,1019.88
2023-04-27T11:52:13.035Z,1019.85
2023-04-27T11:53:12.985Z,1019.83
2023-04-27T11:54:13.535Z,1019.77
2023-04-27T11:55:13.692Z,1019.75
2023-04-27T11:56:13.771Z,1019.80
2023-04-27T11:57:13.835Z,1019.81
2023-04-27T11:58:14.071Z,1019.78
2023-04-27T11:59:13.398Z,1019.81
2023-04-27T12:00:13.699Z,1019.77
2023-04-27T12:01:14.698Z,1019.76
2023-04-27T12:02:13.794Z,1019.79
2023-04-27T12:03:14.568Z,1019.78
2023-04-27T12:04:13.996Z,1019.76
2023-04-27T12:05:13.916Z,1019.74
2023-04-27T12:06:31.815Z,1019.74
2023-04-27T12:07:13.006Z,1019.75
2023-04-27T12:08:13.462Z,1019.81
2023-04-27T12:09:14.891Z,1019.77
2023-04-27T12:10:13.044Z,1019.75
2023-04-27T12:11:13.272Z,1019.72
2023-04-27T12:12:13.424Z,1019.76
2023-04-27T12:13:13.829Z,1019.79
2023-04-27T12:14:14.349Z,1019.79
2023-04-27T12:15:13.824Z,1019.72
2023-04-27T12:16:13.856Z,1019.74